sensor_id;sensor_type;location;lat;lon;timestamp;pressure;altitude;pressure_sealevel;temperature;humidity
70684;BME280;58263;48.146;11.440;2023-02-28T00:02:15;96121.22;;;-1.54;61.24
70684;BME280;58263;48.146;11.440;2023-02-28T00:04:43;96116.66;;;-1.52;61.34
70684;BME280;58263;48.146;11.440;2023-02-28T00:07:08;96116.09;;;-1.56;61.39
70684;BME280;58263;48.146;11.440;2023-02-28T00:09:34;96108.97;;;-1.63;61.43
70684;BME280;58263;48.146;11.440;2023-02-28T00:11:59;96107.84;;;-1.61;61.66
70684;BME280;58263;48.146;11.440;2023-02-28T00:14:24;96106.31;;;-1.63;61.65
70684;BME280;58263;48.146;11.440;2023-02-28T00:16:50;96107.59;;;-1.67;61.85
70684;BME280;58263;48.146;11.440;2023-02-28T00:19:15;96102.59;;;-1.71;61.79
70684;BME280;58263;48.146;11.440;2023-02-28T00:21:40;96112.84;;;-1.67;61.63
70684;BME280;58263;48.146;11.440;2023-02-28T00:24:06;96112.59;;;-1.74;62.18
70684;BME280;58263;48.146;11.440;2023-02-28T00:26:32;96110.38;;;-1.79;62.11
70684;BME280;58263;48.146;11.440;2023-02-28T00:28:57;96109.81;;;-1.73;61.97
70684;BME280;58263;48.146;11.440;2023-02-28T00:31:23;96101.53;;;-1.78;62.04
70684;BME280;58263;48.146;11.440;2023-02-28T00:33:48;96104.31;;;-1.79;62.06
70684;BME280;58263;48.146;11.440;2023-02-28T00:36:14;96104.97;;;-1.77;61.99
70684;BME280;58263;48.146;11.440;2023-02-28T00:38:40;96098.81;;;-1.86;62.34
70684;BME280;58263;48.146;11.440;2023-02-28T00:41:06;96104.47;;;-1.81;62.12
70684;BME280;58263;48.146;11.440;2023-02-28T00:43:33;96099.50;;;-1.84;62.16
70684;BME280;58263;48.146;11.440;2023-02-28T00:45:59;96104.59;;;-1.82;62.36
70684;BME280;58263;48.146;11.440;2023-02-28T00:48:24;96096.88;;;-1.84;62.29
70684;BME280;58263;48.146;11.440;2023-02-28T00:50:50;96101.88;;;-1.91;62.75
70684;BME280;58263;48.146;11.440;2023-02-28T00:53:15;96105.03;;;-1.87;62.63
70684;BME280;58263;48.146;11.440;2023-02-28T00:55:40;96108.66;;;-1.88;62.58
70684;BME280;58263;48.146;11.440;2023-02-28T00:58:06;96104.75;;;-1.84;62.47
70684;BME280;58263;48.146;11.440;2023-02-28T01:00:31;96108.34;;;-1.85;62.64
70684;BME280;58263;48.146;11.440;2023-02-28T01:02:56;96106.44;;;-1.93;62.72
70684;BME280;58263;48.146;11.440;2023-02-28T01:05:22;96098.03;;;-1.96;63.00
70684;BME280;58263;48.146;11.440;2023-02-28T01:07:47;96102.69;;;-1.90;62.66
70684;BME280;58263;48.146;11.440;2023-02-28T01:10:12;96095.75;;;-1.91;62.83
70684;BME280;58263;48.146;11.440;2023-02-28T01:12:38;96088.88;;;-1.92;62.78
70684;BME280;58263;48.146;11.440;2023-02-28T01:15:03;96096.63;;;-1.91;62.91
70684;BME280;58263;48.146;11.440;2023-02-28T01:17:29;96092.19;;;-1.90;62.73
70684;BME280;58263;48.146;11.440;2023-02-28T01:19:55;96090.81;;;-1.94;63.14
70684;BME280;58263;48.146;11.440;2023-02-28T01:22:21;96092.34;;;-2.01;63.33
70684;BME280;58263;48.146;11.440;2023-02-28T01:24:47;96093.44;;;-1.94;63.19
70684;BME280;58263;48.146;11.440;2023-02-28T01:27:12;96086.81;;;-1.98;63.30
70684;BME280;58263;48.146;11.440;2023-02-28T01:29:38;96081.41;;;-1.97;63.28
70684;BME280;58263;48.146;11.440;2023-02-28T01:32:03;96081.16;;;-2.04;63.34
70684;BME280;58263;48.146;11.440;2023-02-28T01:34:28;96084.75;;;-2.05;63.43
70684;BME280;58263;48.146;11.440;2023-02-28T01:36:54;96076.84;;;-2.05;63.26
70684;BME280;58263;48.146;11.440;2023-02-28T01:39:19;96081.59;;;-2.08;63.61
70684;BME280;58263;48.146;11.440;2023-02-28T01:41:44;96071.63;;;-2.14;63.75
70684;BME280;58263;48.146;11.440;2023-02-28T01:47:17;96075.78;;;-2.12;63.91
70684;BME280;58263;48.146;11.440;2023-02-28T01:49:42;96069.84;;;-2.14;63.89
70684;BME280;58263;48.146;11.440;2023-02-28T01:52:09;96079.00;;;-2.18;64.03
70684;BME280;58263;48.146;11.440;2023-02-28T01:54:40;96066.81;;;-2.19;63.86
70684;BME280;58263;48.146;11.440;2023-02-28T01:57:09;96066.53;;;-2.16;63.84
70684;BME280;58263;48.146;11.440;2023-02-28T01:59:41;96069.84;;;-2.14;63.95
70684;BME280;58263;48.146;11.440;2023-02-28T02:02:12;96071.13;;;-2.18;64.13
70684;BME280;58263;48.146;11.440;2023-02-28T02:04:43;96065.16;;;-2.20;64.52
70684;BME280;58263;48.146;11.440;2023-02-28T02:07:12;96067.97;;;-2.31;64.52
70684;BME280;58263;48.146;11.440;2023-02-28T02:09:38;96069.03;;;-2.24;64.45
70684;BME280;58263;48.146;11.440;2023-02-28T02:12:26;96069.38;;;-2.37;64.75
70684;BME280;58263;48.146;11.440;2023-02-28T02:15:09;96070.34;;;-2.38;64.87
70684;BME280;58263;48.146;11.440;2023-02-28T02:17:42;96066.44;;;-2.34;64.68
70684;BME280;58263;48.146;11.440;2023-02-28T02:31:20;96054.72;;;-2.40;64.92
70684;BME280;58263;48.146;11.440;2023-02-28T02:36:46;96057.22;;;-2.48;65.28
70684;BME280;58263;48.146;11.440;2023-02-28T02:39:53;96051.69;;;-2.55;65.74
70684;BME280;58263;48.146;11.440;2023-02-28T02:42:55;96047.13;;;-2.52;65.68
70684;BME280;58263;48.146;11.440;2023-02-28T02:48:10;96046.97;;;-2.51;65.70
70684;BME280;58263;48.146;11.440;2023-02-28T02:50:42;96045.72;;;-2.47;65.51
70684;BME280;58263;48.146;11.440;2023-02-28T02:53:10;96048.22;;;-2.55;65.92
70684;BME280;58263;48.146;11.440;2023-02-28T02:55:41;96038.00;;;-2.48;65.75
70684;BME280;58263;48.146;11.440;2023-02-28T02:58:11;96048.78;;;-2.51;66.01
70684;BME280;58263;48.146;11.440;2023-02-28T03:00:42;96042.97;;;-2.55;66.14
70684;BME280;58263;48.146;11.440;2023-02-28T03:03:10;96041.72;;;-2.51;66.03
70684;BME280;58263;48.146;11.440;2023-02-28T03:05:48;96041.06;;;-2.53;66.00
70684;BME280;58263;48.146;11.440;2023-02-28T03:08:14;96041.72;;;-2.51;66.03
70684;BME280;58263;48.146;11.440;2023-02-28T03:10:45;96039.25;;;-2.52;66.43
70684;BME280;58263;48.146;11.440;2023-02-28T03:27:39;96056.41;;;-2.58;67.02
70684;BME280;58263;48.146;11.440;2023-02-28T03:32:49;96061.66;;;-2.58;67.14
70684;BME280;58263;48.146;11.440;2023-02-28T03:35:20;96054.63;;;-2.67;67.20
70684;BME280;58263;48.146;11.440;2023-02-28T03:37:48;96052.56;;;-2.74;67.44
70684;BME280;58263;48.146;11.440;2023-02-28T03:40:17;96056.56;;;-2.89;68.01
70684;BME280;58263;48.146;11.440;2023-02-28T03:42:48;96054.06;;;-2.91;68.06
70684;BME280;58263;48.146;11.440;2023-02-28T03:45:21;96051.72;;;-2.84;67.88
70684;BME280;58263;48.146;11.440;2023-02-28T03:47:59;96056.84;;;-2.82;67.81
70684;BME280;58263;48.146;11.440;2023-02-28T03:50:30;96056.84;;;-2.82;67.65
70684;BME280;58263;48.146;11.440;2023-02-28T03:53:04;96055.88;;;-2.91;68.05
70684;BME280;58263;48.146;11.440;2023-02-28T03:55:38;96056.19;;;-2.94;68.11
70684;BME280;58263;48.146;11.440;2023-02-28T03:58:13;96064.03;;;-2.94;68.28
70684;BME280;58263;48.146;11.440;2023-02-28T04:00:42;96062.38;;;-2.95;68.23
70684;BME280;58263;48.146;11.440;2023-02-28T04:03:09;96068.19;;;-2.92;68.36
70684;BME280;58263;48.146;11.440;2023-02-28T04:05:53;96062.38;;;-2.95;68.60
70684;BME280;58263;48.146;11.440;2023-02-28T04:08:20;96073.56;;;-2.93;68.61
70684;BME280;58263;48.146;11.440;2023-02-28T04:10:51;96078.28;;;-2.97;68.81
70684;BME280;58263;48.146;11.440;2023-02-28T04:13:19;96087.53;;;-2.93;68.81
70684;BME280;58263;48.146;11.440;2023-02-28T04:15:44;96100.50;;;-2.91;68.94
70684;BME280;58263;48.146;11.440;2023-02-28T04:18:09;96095.69;;;-2.96;69.08
70684;BME280;58263;48.146;11.440;2023-02-28T04:20:35;96103.41;;;-2.94;69.37
70684;BME280;58263;48.146;11.440;2023-02-28T04:23:01;96103.94;;;-2.91;69.31
70684;BME280;58263;48.146;11.440;2023-02-28T04:25:26;96105.88;;;-2.83;69.35
70684;BME280;58263;48.146;11.440;2023-02-28T04:27:51;96102.84;;;-2.78;69.12
70684;BME280;58263;48.146;11.440;2023-02-28T04:30:17;96093.59;;;-2.73;69.14
70684;BME280;58263;48.146;11.440;2023-02-28T04:32:42;96100.09;;;-2.77;69.40
70684;BME280;58263;48.146;11.440;2023-02-28T04:35:08;96089.84;;;-2.70;69.32
70684;BME280;58263;48.146;11.440;2023-02-28T04:37:33;96091.09;;;-2.64;69.18
70684;BME280;58263;48.146;11.440;2023-02-28T04:40:00;96089.16;;;-2.62;69.16
70684;BME280;58263;48.146;11.440;2023-02-28T04:42:26;96088.06;;;-2.69;69.68
70684;BME280;58263;48.146;11.440;2023-02-28T04:44:51;96094.97;;;-2.59;69.14
70684;BME280;58263;48.146;11.440;2023-02-28T04:47:17;96097.31;;;-2.56;69.29
70684;BME280;58263;48.146;11.440;2023-02-28T04:49:42;96095.50;;;-2.55;69.45
70684;BME280;58263;48.146;11.440;2023-02-28T04:52:08;96098.97;;;-2.55;69.31
70684;BME280;58263;48.146;11.440;2023-02-28T04:54:35;96099.81;;;-2.64;69.61
70684;BME280;58263;48.146;11.440;2023-02-28T04:57:00;96100.75;;;-2.55;69.56
70684;BME280;58263;48.146;11.440;2023-02-28T04:59:26;96098.69;;;-2.51;69.45
70684;BME280;58263;48.146;11.440;2023-02-28T05:01:51;96099.78;;;-2.44;69.53
70684;BME280;58263;48.146;11.440;2023-02-28T05:04:17;96107.66;;;-2.44;68.91
70684;BME280;58263;48.146;11.440;2023-02-28T05:06:42;96109.16;;;-2.42;69.67
70684;BME280;58263;48.146;11.440;2023-02-28T05:09:07;96106.00;;;-2.35;69.46
70684;BME280;58263;48.146;11.440;2023-02-28T05:11:34;96108.63;;;-2.35;69.51
70684;BME280;58263;48.146;11.440;2023-02-28T05:14:13;96111.38;;;-2.27;69.43
70684;BME280;58263;48.146;11.440;2023-02-28T05:16:39;96108.16;;;-2.21;69.17
70684;BME280;58263;48.146;11.440;2023-02-28T05:19:04;96115.66;;;-2.26;69.30
70684;BME280;58263;48.146;11.440;2023-02-28T05:21:32;96112.44;;;-2.20;69.11
70684;BME280;58263;48.146;11.440;2023-02-28T05:24:01;96115.78;;;-2.18;68.94
70684;BME280;58263;48.146;11.440;2023-02-28T05:26:27;96119.63;;;-2.12;69.04
70684;BME280;58263;48.146;11.440;2023-02-28T05:28:53;96106.06;;;-2.08;68.89
70684;BME280;58263;48.146;11.440;2023-02-28T05:31:18;96117.28;;;-2.06;68.89
70684;BME280;58263;48.146;11.440;2023-02-28T05:33:44;96117.13;;;-2.04;68.92
70684;BME280;58263;48.146;11.440;2023-02-28T05:36:09;96113.25;;;-2.00;68.67
70684;BME280;58263;48.146;11.440;2023-02-28T05:38:35;96108.81;;;-1.99;68.84
70684;BME280;58263;48.146;11.440;2023-02-28T05:41:05;96112.03;;;-2.06;68.96
70684;BME280;58263;48.146;11.440;2023-02-28T05:43:30;96103.84;;;-2.02;68.57
70684;BME280;58263;48.146;11.440;2023-02-28T05:45:56;96111.16;;;-1.96;68.49
70684;BME280;58263;48.146;11.440;2023-02-28T05:48:21;96115.44;;;-1.95;68.54
70684;BME280;58263;48.146;11.440;2023-02-28T05:50:46;96103.28;;;-1.96;68.48
70684;BME280;58263;48.146;11.440;2023-02-28T05:53:12;96109.91;;;-1.92;68.19
70684;BME280;58263;48.146;11.440;2023-02-28T05:55:37;96106.97;;;-1.89;68.14
70684;BME280;58263;48.146;11.440;2023-02-28T05:58:03;96115.69;;;-1.89;68.10
70684;BME280;58263;48.146;11.440;2023-02-28T06:00:28;96117.38;;;-1.97;68.42
70684;BME280;58263;48.146;11.440;2023-02-28T06:02:53;96121.50;;;-1.85;68.23
70684;BME280;58263;48.146;11.440;2023-02-28T06:05:21;96127.72;;;-1.86;68.09
70684;BME280;58263;48.146;11.440;2023-02-28T06:07:47;96125.50;;;-1.81;67.88
70684;BME280;58263;48.146;11.440;2023-02-28T06:10:13;96126.34;;;-1.90;68.02
70684;BME280;58263;48.146;11.440;2023-02-28T06:12:39;96132.00;;;-1.85;68.08
70684;BME280;58263;48.146;11.440;2023-02-28T06:15:07;96127.16;;;-1.80;67.91
70684;BME280;58263;48.146;11.440;2023-02-28T06:17:32;96134.09;;;-1.89;68.12
70684;BME280;58263;48.146;11.440;2023-02-28T06:19:58;96131.72;;;-1.82;67.59
70684;BME280;58263;48.146;11.440;2023-02-28T06:22:23;96135.41;;;-1.75;67.53
70684;BME280;58263;48.146;11.440;2023-02-28T06:24:48;96133.94;;;-1.87;68.09
70684;BME280;58263;48.146;11.440;2023-02-28T06:27:13;96127.94;;;-1.70;67.78
70684;BME280;58263;48.146;11.440;2023-02-28T06:29:39;96131.81;;;-1.74;67.65
70684;BME280;58263;48.146;11.440;2023-02-28T06:32:07;96144.94;;;-1.64;67.78
70684;BME280;58263;48.146;11.440;2023-02-28T06:34:32;96143.59;;;-1.78;67.23
70684;BME280;58263;48.146;11.440;2023-02-28T06:36:59;96142.78;;;-1.78;67.41
70684;BME280;58263;48.146;11.440;2023-02-28T06:39:27;96138.75;;;-1.73;67.21
70684;BME280;58263;48.146;11.440;2023-02-28T06:41:53;96152.84;;;-1.74;67.14
70684;BME280;58263;48.146;11.440;2023-02-28T06:44:18;96146.94;;;-1.76;67.12
70684;BME280;58263;48.146;11.440;2023-02-28T06:46:44;96160.22;;;-1.87;67.43
70684;BME280;58263;48.146;11.440;2023-02-28T06:49:10;96160.72;;;-1.64;67.13
70684;BME280;58263;48.146;11.440;2023-02-28T06:51:37;96167.34;;;-1.60;67.63
70684;BME280;58263;48.146;11.440;2023-02-28T06:54:03;96174.41;;;-1.60;67.12
70684;BME280;58263;48.146;11.440;2023-02-28T06:56:28;96167.59;;;-1.53;67.30
70684;BME280;58263;48.146;11.440;2023-02-28T06:58:54;96167.59;;;-1.53;67.08
70684;BME280;58263;48.146;11.440;2023-02-28T07:01:20;96172.84;;;-1.53;66.74
70684;BME280;58263;48.146;11.440;2023-02-28T07:03:46;96174.13;;;-1.57;66.84
70684;BME280;58263;48.146;11.440;2023-02-28T07:06:12;96169.81;;;-1.58;66.73
70684;BME280;58263;48.146;11.440;2023-02-28T07:08:37;96173.41;;;-1.49;66.61
70684;BME280;58263;48.146;11.440;2023-02-28T07:11:03;96180.06;;;-1.55;66.39
70684;BME280;58263;48.146;11.440;2023-02-28T07:13:28;96174.25;;;-1.59;66.40
70684;BME280;58263;48.146;11.440;2023-02-28T07:16:02;96171.47;;;-1.57;66.69
70684;BME280;58263;48.146;11.440;2023-02-28T07:18:28;96181.16;;;-1.48;66.72
70684;BME280;58263;48.146;11.440;2023-02-28T07:20:54;96178.56;;;-1.58;66.32
70684;BME280;58263;48.146;11.440;2023-02-28T07:23:20;96176.44;;;-1.54;66.53
70684;BME280;58263;48.146;11.440;2023-02-28T07:25:45;96182.97;;;-1.48;66.48
70684;BME280;58263;48.146;11.440;2023-02-28T07:28:12;96184.47;;;-1.46;66.36
70684;BME280;58263;48.146;11.440;2023-02-28T07:30:38;96179.59;;;-1.41;66.39
70684;BME280;58263;48.146;11.440;2023-02-28T07:33:03;96185.00;;;-1.42;66.05
70684;BME280;58263;48.146;11.440;2023-02-28T07:35:29;96183.88;;;-1.40;65.76
70684;BME280;58263;48.146;11.440;2023-02-28T07:37:54;96181.84;;;-1.46;66.34
70684;BME280;58263;48.146;11.440;2023-02-28T07:40:19;96185.03;;;-1.52;66.67
70684;BME280;58263;48.146;11.440;2023-02-28T07:42:45;96182.97;;;-1.48;66.31
70684;BME280;58263;48.146;11.440;2023-02-28T07:45:11;96170.72;;;-1.40;66.16
70684;BME280;58263;48.146;11.440;2023-02-28T07:47:38;96180.59;;;-1.42;66.25
70684;BME280;58263;48.146;11.440;2023-02-28T07:50:05;96181.94;;;-1.38;65.92
70684;BME280;58263;48.146;11.440;2023-02-28T07:52:30;96179.41;;;-1.29;66.16
70684;BME280;58263;48.146;11.440;2023-02-28T07:54:55;96178.72;;;-1.31;65.97
70684;BME280;58263;48.146;11.440;2023-02-28T07:57:21;96185.34;;;-1.27;65.84
70684;BME280;58263;48.146;11.440;2023-02-28T07:59:47;96181.03;;;-1.18;65.65
70684;BME280;58263;48.146;11.440;2023-02-28T08:02:14;96175.16;;;-1.12;65.87
70684;BME280;58263;48.146;11.440;2023-02-28T08:04:40;96179.47;;;-1.11;65.56
70684;BME280;58263;48.146;11.440;2023-02-28T08:07:05;96179.53;;;-1.21;65.16
70684;BME280;58263;48.146;11.440;2023-02-28T08:09:30;96187.59;;;-1.05;64.47
70684;BME280;58263;48.146;11.440;2023-02-28T08:11:56;96190.38;;;-1.06;64.32
70684;BME280;58263;48.146;11.440;2023-02-28T08:14:21;96195.50;;;-1.05;64.75
70684;BME280;58263;48.146;11.440;2023-02-28T08:16:47;96199.81;;;-1.04;64.68
70684;BME280;58263;48.146;11.440;2023-02-28T08:19:12;96206.19;;;-1.06;64.53
70684;BME280;58263;48.146;11.440;2023-02-28T08:21:37;96199.25;;;-1.07;64.61
70684;BME280;58263;48.146;11.440;2023-02-28T08:24:03;96205.63;;;-1.10;64.73
70684;BME280;58263;48.146;11.440;2023-02-28T08:26:28;96207.88;;;-1.15;65.07
70684;BME280;58263;48.146;11.440;2023-02-28T08:28:53;96208.97;;;-1.08;64.98
70684;BME280;58263;48.146;11.440;2023-02-28T08:31:19;96209.34;;;-1.03;64.50
70684;BME280;58263;48.146;11.440;2023-02-28T08:33:44;96205.63;;;-1.10;64.92
70684;BME280;58263;48.146;11.440;2023-02-28T08:36:10;96218.91;;;-1.02;64.74
70684;BME280;58263;48.146;11.440;2023-02-28T08:38:37;96209.56;;;-0.96;64.55
70684;BME280;58263;48.146;11.440;2023-02-28T08:41:06;96215.53;;;-0.94;64.36
70684;BME280;58263;48.146;11.440;2023-02-28T08:43:33;96221.31;;;-0.90;64.43
70684;BME280;58263;48.146;11.440;2023-02-28T08:45:58;96222.88;;;-0.97;64.63
70684;BME280;58263;48.146;11.440;2023-02-28T08:48:27;96232.16;;;-0.93;64.13
70684;BME280;58263;48.146;11.440;2023-02-28T08:51:01;96228.25;;;-0.89;64.03
70684;BME280;58263;48.146;11.440;2023-02-28T08:53:27;96227.13;;;-0.87;64.04
70684;BME280;58263;48.146;11.440;2023-02-28T08:56:00;96224.34;;;-0.85;64.40
70684;BME280;58263;48.146;11.440;2023-02-28T08:58:27;96226.69;;;-0.82;63.61
70684;BME280;58263;48.146;11.440;2023-02-28T09:00:52;96223.94;;;-0.80;63.63
70684;BME280;58263;48.146;11.440;2023-02-28T09:03:18;96232.72;;;-0.72;64.15
70684;BME280;58263;48.146;11.440;2023-02-28T09:05:54;96221.91;;;-0.69;63.67
70684;BME280;58263;48.146;11.440;2023-02-28T09:08:19;96230.72;;;-0.60;63.39
70684;BME280;58263;48.146;11.440;2023-02-28T09:10:44;96226.97;;;-0.57;63.24
70684;BME280;58263;48.146;11.440;2023-02-28T09:13:10;96229.44;;;-0.56;63.05
70684;BME280;58263;48.146;11.440;2023-02-28T09:15:37;96229.31;;;-0.54;62.92
70684;BME280;58263;48.146;11.440;2023-02-28T09:18:02;96230.50;;;-0.48;62.87
70684;BME280;58263;48.146;11.440;2023-02-28T09:20:28;96234.56;;;-0.54;62.94
70684;BME280;58263;48.146;11.440;2023-02-28T09:22:53;96227.06;;;-0.49;62.85
70684;BME280;58263;48.146;11.440;2023-02-28T09:25:18;96243.59;;;-0.39;62.55
70684;BME280;58263;48.146;11.440;2023-02-28T09:27:43;96240.66;;;-0.36;62.35
70684;BME280;58263;48.146;11.440;2023-02-28T09:30:11;96247.28;;;-0.31;62.35
70684;BME280;58263;48.146;11.440;2023-02-28T09:32:36;96245.59;;;-0.23;61.71
70684;BME280;58263;48.146;11.440;2023-02-28T09:35:02;96249.34;;;-0.25;62.20
70684;BME280;58263;48.146;11.440;2023-02-28T09:37:27;96256.94;;;-0.22;62.56
70684;BME280;58263;48.146;11.440;2023-02-28T09:39:54;96252.75;;;-0.15;61.94
70684;BME280;58263;48.146;11.440;2023-02-28T09:42:32;96257.41;;;-0.09;61.58
70684;BME280;58263;48.146;11.440;2023-02-28T09:45:00;96254.53;;;0.03;61.50
70684;BME280;58263;48.146;11.440;2023-02-28T09:47:36;96258.38;;;0.08;61.37
70684;BME280;58263;48.146;11.440;2023-02-28T09:50:34;96259.94;;;0.19;61.25
70684;BME280;58263;48.146;11.440;2023-02-28T09:53:11;96267.19;;;0.17;61.14
70684;BME280;58263;48.146;11.440;2023-02-28T09:55:45;96274.41;;;0.15;61.31
70684;BME280;58263;48.146;11.440;2023-02-28T09:58:20;96270.22;;;0.04;61.15
70684;BME280;58263;48.146;11.440;2023-02-28T10:00:54;96277.41;;;0.20;61.06
70684;BME280;58263;48.146;11.440;2023-02-28T10:03:32;96276.25;;;0.41;60.19
70684;BME280;58263;48.146;11.440;2023-02-28T10:06:20;96272.00;;;0.40;60.17
70684;BME280;58263;48.146;11.440;2023-02-28T10:09:01;96269.09;;;0.51;59.88
70684;BME280;58263;48.146;11.440;2023-02-28T10:11:27;96267.25;;;0.70;59.83
70684;BME280;58263;48.146;11.440;2023-02-28T10:14:00;96277.69;;;0.79;59.58
70684;BME280;58263;48.146;11.440;2023-02-28T10:16:36;96268.69;;;0.90;59.15
70684;BME280;58263;48.146;11.440;2023-02-28T10:19:09;96277.63;;;0.97;58.61
70684;BME280;58263;48.146;11.440;2023-02-28T10:21:42;96270.66;;;0.96;59.07
70684;BME280;58263;48.146;11.440;2023-02-28T10:24:33;96277.66;;;1.06;59.12
70684;BME280;58263;48.146;11.440;2023-02-28T10:27:14;96277.47;;;0.99;58.75
70684;BME280;58263;48.146;11.440;2023-02-28T10:29:45;96283.66;;;1.16;58.80
70684;BME280;58263;48.146;11.440;2023-02-28T10:32:17;96281.06;;;1.24;58.04
70684;BME280;58263;48.146;11.440;2023-02-28T10:34:42;96283.75;;;1.06;58.60
70684;BME280;58263;48.146;11.440;2023-02-28T10:37:09;96283.69;;;1.24;58.25
70684;BME280;58263;48.146;11.440;2023-02-28T10:42:00;96291.63;;;0.98;58.28
70684;BME280;58263;48.146;11.440;2023-02-28T10:44:25;96296.91;;;0.98;58.47
70684;BME280;58263;48.146;11.440;2023-02-28T10:46:51;96296.97;;;1.06;58.45
70684;BME280;58263;48.146;11.440;2023-02-28T10:49:25;96298.31;;;1.10;58.14
70684;BME280;58263;48.146;11.440;2023-02-28T10:51:55;96301.47;;;1.14;57.75
70684;BME280;58263;48.146;11.440;2023-02-28T10:54:27;96303.94;;;1.15;58.05
70684;BME280;58263;48.146;11.440;2023-02-28T10:57:28;96297.22;;;1.21;57.78
70684;BME280;58263;48.146;11.440;2023-02-28T11:00:14;96293.66;;;1.39;57.70
70684;BME280;58263;48.146;11.440;2023-02-28T11:02:40;96294.72;;;1.54;57.10
70684;BME280;58263;48.146;11.440;2023-02-28T11:05:28;96299.72;;;1.65;56.50
70684;BME280;58263;48.146;11.440;2023-02-28T11:07:56;96301.25;;;1.93;55.20
70684;BME280;58263;48.146;11.440;2023-02-28T11:10:25;96306.41;;;2.11;55.59
70684;BME280;58263;48.146;11.440;2023-02-28T11:12:55;96305.41;;;2.03;55.21
70684;BME280;58263;48.146;11.440;2023-02-28T11:17:59;96298.13;;;2.06;54.89
70684;BME280;58263;48.146;11.440;2023-02-28T11:20:27;96311.84;;;2.01;54.13
70684;BME280;58263;48.146;11.440;2023-02-28T11:22:54;96300.13;;;2.12;54.13
70684;BME280;58263;48.146;11.440;2023-02-28T11:25:24;96307.56;;;2.33;54.13
70684;BME280;58263;48.146;11.440;2023-02-28T11:27:52;96301.97;;;2.44;53.36
70684;BME280;58263;48.146;11.440;2023-02-28T11:30:37;96297.16;;;2.56;53.53
70684;BME280;58263;48.146;11.440;2023-02-28T11:33:23;96292.03;;;2.46;54.34
70684;BME280;58263;48.146;11.440;2023-02-28T11:35:52;96291.22;;;2.62;53.67
70684;BME280;58263;48.146;11.440;2023-02-28T11:38:18;96288.56;;;2.62;53.83
70684;BME280;58263;48.146;11.440;2023-02-28T11:43:48;96277.91;;;2.87;52.65
70684;BME280;58263;48.146;11.440;2023-02-28T11:46:26;96275.75;;;2.99;51.98
70684;BME280;58263;48.146;11.440;2023-02-28T11:49:18;96275.19;;;3.12;52.09
70684;BME280;58263;48.146;11.440;2023-02-28T11:52:02;96269.63;;;3.78;51.21
70684;BME280;58263;48.146;11.440;2023-02-28T11:55:09;96257.84;;;4.27;49.84
70684;BME280;58263;48.146;11.440;2023-02-28T12:00:44;96259.63;;;4.34;48.51
70684;BME280;58263;48.146;11.440;2023-02-28T12:03:22;96258.38;;;4.45;48.35
70684;BME280;58263;48.146;11.440;2023-02-28T12:06:06;96253.56;;;5.38;46.81
70684;BME280;58263;48.146;11.440;2023-02-28T12:11:34;96251.47;;;6.00;45.03
70684;BME280;58263;48.146;11.440;2023-02-28T12:19:20;96241.97;;;6.91;43.31
70684;BME280;58263;48.146;11.440;2023-02-28T12:22:12;96239.72;;;7.23;42.21
70684;BME280;58263;48.146;11.440;2023-02-28T12:27:34;96231.53;;;7.79;41.43
70684;BME280;58263;48.146;11.440;2023-02-28T12:30:08;96228.91;;;7.31;41.54
70684;BME280;58263;48.146;11.440;2023-02-28T12:32:44;96223.56;;;7.93;40.98
70684;BME280;58263;48.146;11.440;2023-02-28T12:35:13;96223.44;;;8.41;40.18
70684;BME280;58263;48.146;11.440;2023-02-28T12:38:22;96214.78;;;9.13;39.00
70684;BME280;58263;48.146;11.440;2023-02-28T12:40:57;96210.47;;;9.71;37.75
70684;BME280;58263;48.146;11.440;2023-02-28T12:43:30;96206.00;;;11.04;35.27
70684;BME280;58263;48.146;11.440;2023-02-28T12:46:00;96196.97;;;12.22;32.93
70684;BME280;58263;48.146;11.440;2023-02-28T12:48:42;96201.28;;;13.48;31.24
70684;BME280;58263;48.146;11.440;2023-02-28T12:51:08;96198.34;;;13.14;30.93
70684;BME280;58263;48.146;11.440;2023-02-28T13:09:56;96190.03;;;17.41;25.09
70684;BME280;58263;48.146;11.440;2023-02-28T13:12:23;96190.31;;;18.03;23.83
70684;BME280;58263;48.146;11.440;2023-02-28T13:14:49;96188.91;;;16.62;25.41
70684;BME280;58263;48.146;11.440;2023-02-28T13:17:20;96185.63;;;16.60;24.58
70684;BME280;58263;48.146;11.440;2023-02-28T13:19:58;96186.31;;;17.63;24.24
70684;BME280;58263;48.146;11.440;2023-02-28T13:22:39;96176.06;;;17.70;23.86
70684;BME280;58263;48.146;11.440;2023-02-28T13:28:02;96190.72;;;17.21;24.15
70684;BME280;58263;48.146;11.440;2023-02-28T13:35:46;96191.81;;;18.93;22.32
70684;BME280;58263;48.146;11.440;2023-02-28T13:38:24;96191.41;;;18.17;22.89
70684;BME280;58263;48.146;11.440;2023-02-28T13:40:49;96189.78;;;16.72;24.69
70684;BME280;58263;48.146;11.440;2023-02-28T13:43:16;96186.53;;;15.44;26.29
70684;BME280;58263;48.146;11.440;2023-02-28T13:46:06;96191.75;;;13.98;28.10
70684;BME280;58263;48.146;11.440;2023-02-28T13:48:33;96193.06;;;13.31;29.30
70684;BME280;58263;48.146;11.440;2023-02-28T13:50:58;96194.19;;;12.40;30.54
70684;BME280;58263;48.146;11.440;2023-02-28T13:53:41;96198.88;;;11.54;32.25
70684;BME280;58263;48.146;11.440;2023-02-28T13:56:26;96204.69;;;11.69;31.87
70684;BME280;58263;48.146;11.440;2023-02-28T13:59:03;96196.69;;;10.88;32.91
70684;BME280;58263;48.146;11.440;2023-02-28T14:07:00;96193.66;;;11.03;33.76
70684;BME280;58263;48.146;11.440;2023-02-28T14:15:04;96200.31;;;9.34;36.08
70684;BME280;58263;48.146;11.440;2023-02-28T14:17:31;96198.81;;;8.59;37.75
70684;BME280;58263;48.146;11.440;2023-02-28T14:19:57;96198.38;;;8.29;38.93
70684;BME280;58263;48.146;11.440;2023-02-28T14:28:17;96203.31;;;7.08;40.68
70684;BME280;58263;48.146;11.440;2023-02-28T14:31:08;96206.75;;;6.96;41.49
70684;BME280;58263;48.146;11.440;2023-02-28T14:36:41;96203.09;;;6.68;42.04
70684;BME280;58263;48.146;11.440;2023-02-28T14:39:19;96205.50;;;6.63;42.19
70684;BME280;58263;48.146;11.440;2023-02-28T14:41:46;96201.91;;;6.77;42.06
70684;BME280;58263;48.146;11.440;2023-02-28T14:44:26;96203.44;;;6.65;41.66
70684;BME280;58263;48.146;11.440;2023-02-28T14:46:56;96203.56;;;6.79;41.63
70684;BME280;58263;48.146;11.440;2023-02-28T14:49:30;96207.00;;;6.72;42.08